sensor_id;sensor_type;location;lat;lon;timestamp;temperature;humidity
4840;DHT22;2434;48.486;7.964;2024-02-14T00:01:04;7.90;60.70
4840;DHT22;2434;48.486;7.964;2024-02-14T00:03:35;7.90;60.80
4840;DHT22;2434;48.486;7.964;2024-02-14T00:06:05;7.90;60.80
4840;DHT22;2434;48.486;7.964;2024-02-14T00:08:33;7.80;61.90
4840;DHT22;2434;48.486;7.964;2024-02-14T00:11:02;7.90;62.60
4840;DHT22;2434;48.486;7.964;2024-02-14T00:13:30;7.90;62.30
4840;DHT22;2434;48.486;7.964;2024-02-14T00:16:01;7.80;61.40
4840;DHT22;2434;48.486;7.964;2024-02-14T00:18:31;7.90;62.00
4840;DHT22;2434;48.486;7.964;2024-02-14T00:20:59;7.90;62.70
4840;DHT22;2434;48.486;7.964;2024-02-14T00:23:27;7.90;62.10
4840;DHT22;2434;48.486;7.964;2024-02-14T00:25:55;7.90;62.00
4840;DHT22;2434;48.486;7.964;2024-02-14T00:28:23;7.90;61.60
4840;DHT22;2434;48.486;7.964;2024-02-14T00:30:53;7.90;61.20
4840;DHT22;2434;48.486;7.964;2024-02-14T00:33:21;7.90;61.00
4840;DHT22;2434;48.486;7.964;2024-02-14T00:35:51;7.90;60.70
4840;DHT22;2434;48.486;7.964;2024-02-14T00:38:20;7.90;60.70
4840;DHT22;2434;48.486;7.964;2024-02-14T00:40:47;7.90;61.10
4840;DHT22;2434;48.486;7.964;2024-02-14T00:43:16;7.90;60.30
4840;DHT22;2434;48.486;7.964;2024-02-14T00:45:44;8.00;60.30
4840;DHT22;2434;48.486;7.964;2024-02-14T00:48:12;7.90;60.10
4840;DHT22;2434;48.486;7.964;2024-02-14T00:50:41;7.90;59.90
4840;DHT22;2434;48.486;7.964;2024-02-14T00:53:11;7.90;60.00
4840;DHT22;2434;48.486;7.964;2024-02-14T00:55:40;7.90;60.00
4840;DHT22;2434;48.486;7.964;2024-02-14T00:58:08;7.80;59.50
4840;DHT22;2434;48.486;7.964;2024-02-14T01:00:36;7.80;59.20
4840;DHT22;2434;48.486;7.964;2024-02-14T01:03:06;7.80;58.50
4840;DHT22;2434;48.486;7.964;2024-02-14T01:05:34;7.80;58.30
4840;DHT22;2434;48.486;7.964;2024-02-14T01:08:03;7.70;58.20
4840;DHT22;2434;48.486;7.964;2024-02-14T01:10:32;7.70;57.70
4840;DHT22;2434;48.486;7.964;2024-02-14T01:13:00;7.70;57.70
4840;DHT22;2434;48.486;7.964;2024-02-14T01:15:28;7.70;57.30
4840;DHT22;2434;48.486;7.964;2024-02-14T01:17:57;7.70;57.10
4840;DHT22;2434;48.486;7.964;2024-02-14T01:20:25;7.70;57.20
4840;DHT22;2434;48.486;7.964;2024-02-14T01:22:53;7.70;57.70
4840;DHT22;2434;48.486;7.964;2024-02-14T01:25:21;7.80;57.70
4840;DHT22;2434;48.486;7.964;2024-02-14T01:27:50;7.70;57.40
4840;DHT22;2434;48.486;7.964;2024-02-14T01:30:19;7.70;57.00
4840;DHT22;2434;48.486;7.964;2024-02-14T01:32:47;7.80;57.00
4840;DHT22;2434;48.486;7.964;2024-02-14T01:35:15;7.80;57.90
4840;DHT22;2434;48.486;7.964;2024-02-14T01:37:43;7.70;56.70
4840;DHT22;2434;48.486;7.964;2024-02-14T01:40:12;7.80;56.80
4840;DHT22;2434;48.486;7.964;2024-02-14T01:42:40;7.70;56.80
4840;DHT22;2434;48.486;7.964;2024-02-14T01:45:10;7.80;57.30
4840;DHT22;2434;48.486;7.964;2024-02-14T01:47:38;7.80;56.50
4840;DHT22;2434;48.486;7.964;2024-02-14T01:50:09;7.90;56.10
4840;DHT22;2434;48.486;7.964;2024-02-14T01:52:39;7.90;56.30
4840;DHT22;2434;48.486;7.964;2024-02-14T01:55:08;7.90;56.30
4840;DHT22;2434;48.486;7.964;2024-02-14T01:57:36;7.90;56.00
4840;DHT22;2434;48.486;7.964;2024-02-14T02:00:07;7.90;55.80
4840;DHT22;2434;48.486;7.964;2024-02-14T02:02:40;8.00;55.60
4840;DHT22;2434;48.486;7.964;2024-02-14T02:05:13;8.10;55.30
4840;DHT22;2434;48.486;7.964;2024-02-14T02:07:43;8.10;55.50
4840;DHT22;2434;48.486;7.964;2024-02-14T02:10:12;8.10;55.80
4840;DHT22;2434;48.486;7.964;2024-02-14T02:12:40;8.10;55.50
4840;DHT22;2434;48.486;7.964;2024-02-14T02:15:08;8.10;54.90
4840;DHT22;2434;48.486;7.964;2024-02-14T02:17:41;8.10;55.00
4840;DHT22;2434;48.486;7.964;2024-02-14T02:20:12;8.10;55.50
4840;DHT22;2434;48.486;7.964;2024-02-14T02:22:45;8.10;55.90
4840;DHT22;2434;48.486;7.964;2024-02-14T02:25:14;8.10;55.60
4840;DHT22;2434;48.486;7.964;2024-02-14T02:27:43;8.10;55.60
4840;DHT22;2434;48.486;7.964;2024-02-14T02:30:11;8.10;55.10
4840;DHT22;2434;48.486;7.964;2024-02-14T02:32:42;8.10;54.70
4840;DHT22;2434;48.486;7.964;2024-02-14T02:35:10;8.10;55.00
4840;DHT22;2434;48.486;7.964;2024-02-14T02:37:38;8.10;54.70
4840;DHT22;2434;48.486;7.964;2024-02-14T02:40:08;8.10;54.90
4840;DHT22;2434;48.486;7.964;2024-02-14T02:42:37;8.20;54.50
4840;DHT22;2434;48.486;7.964;2024-02-14T02:45:05;8.20;54.20
4840;DHT22;2434;48.486;7.964;2024-02-14T02:47:34;8.20;54.30
4840;DHT22;2434;48.486;7.964;2024-02-14T02:50:02;8.20;53.90
4840;DHT22;2434;48.486;7.964;2024-02-14T02:52:30;8.30;53.60
4840;DHT22;2434;48.486;7.964;2024-02-14T02:54:58;8.30;54.20
4840;DHT22;2434;48.486;7.964;2024-02-14T02:57:28;8.40;53.50
4840;DHT22;2434;48.486;7.964;2024-02-14T02:59:58;8.30;53.30
4840;DHT22;2434;48.486;7.964;2024-02-14T03:02:26;8.30;53.50
4840;DHT22;2434;48.486;7.964;2024-02-14T03:04:54;8.40;53.50
4840;DHT22;2434;48.486;7.964;2024-02-14T03:07:23;8.40;53.40
4840;DHT22;2434;48.486;7.964;2024-02-14T03:09:51;8.40;53.30
4840;DHT22;2434;48.486;7.964;2024-02-14T03:12:20;8.50;52.60
4840;DHT22;2434;48.486;7.964;2024-02-14T03:14:51;8.50;52.50
4840;DHT22;2434;48.486;7.964;2024-02-14T03:17:19;8.50;52.70
4840;DHT22;2434;48.486;7.964;2024-02-14T03:19:47;8.50;52.70
4840;DHT22;2434;48.486;7.964;2024-02-14T03:22:18;8.50;52.40
4840;DHT22;2434;48.486;7.964;2024-02-14T03:24:47;8.50;52.20
4840;DHT22;2434;48.486;7.964;2024-02-14T03:27:15;8.50;52.00
4840;DHT22;2434;48.486;7.964;2024-02-14T03:29:44;8.50;52.10
4840;DHT22;2434;48.486;7.964;2024-02-14T03:32:15;8.60;52.10
4840;DHT22;2434;48.486;7.964;2024-02-14T03:34:44;8.60;52.20
4840;DHT22;2434;48.486;7.964;2024-02-14T03:37:12;8.60;52.10
4840;DHT22;2434;48.486;7.964;2024-02-14T03:39:40;8.70;52.20
4840;DHT22;2434;48.486;7.964;2024-02-14T03:42:08;8.70;52.30
4840;DHT22;2434;48.486;7.964;2024-02-14T03:44:36;8.70;52.30
4840;DHT22;2434;48.486;7.964;2024-02-14T03:47:05;8.70;52.00
4840;DHT22;2434;48.486;7.964;2024-02-14T03:49:34;8.70;51.80
4840;DHT22;2434;48.486;7.964;2024-02-14T03:52:03;8.70;51.90
4840;DHT22;2434;48.486;7.964;2024-02-14T03:54:35;8.70;51.70
4840;DHT22;2434;48.486;7.964;2024-02-14T03:57:04;8.80;51.30
4840;DHT22;2434;48.486;7.964;2024-02-14T03:59:38;8.80;51.60
4840;DHT22;2434;48.486;7.964;2024-02-14T04:02:06;8.80;51.20
4840;DHT22;2434;48.486;7.964;2024-02-14T04:04:38;8.80;51.20
4840;DHT22;2434;48.486;7.964;2024-02-14T04:07:06;8.80;50.80
4840;DHT22;2434;48.486;7.964;2024-02-14T04:09:35;8.80;51.40
4840;DHT22;2434;48.486;7.964;2024-02-14T04:12:03;8.80;51.10
4840;DHT22;2434;48.486;7.964;2024-02-14T04:14:32;8.90;51.00
4840;DHT22;2434;48.486;7.964;2024-02-14T04:17:00;8.90;50.90
4840;DHT22;2434;48.486;7.964;2024-02-14T04:19:28;8.90;51.10
4840;DHT22;2434;48.486;7.964;2024-02-14T04:21:58;8.90;51.00
4840;DHT22;2434;48.486;7.964;2024-02-14T04:24:26;8.90;51.00
4840;DHT22;2434;48.486;7.964;2024-02-14T04:26:54;8.90;51.00
4840;DHT22;2434;48.486;7.964;2024-02-14T04:29:23;8.90;51.40
4840;DHT22;2434;48.486;7.964;2024-02-14T04:31:51;8.90;51.30
4840;DHT22;2434;48.486;7.964;2024-02-14T04:34:19;8.90;51.50
4840;DHT22;2434;48.486;7.964;2024-02-14T04:36:48;8.90;51.50
4840;DHT22;2434;48.486;7.964;2024-02-14T04:39:17;8.90;51.30
4840;DHT22;2434;48.486;7.964;2024-02-14T04:41:45;8.90;51.30
4840;DHT22;2434;48.486;7.964;2024-02-14T04:44:27;8.90;51.10
4840;DHT22;2434;48.486;7.964;2024-02-14T04:46:55;8.90;50.80
4840;DHT22;2434;48.486;7.964;2024-02-14T04:49:26;8.90;50.80
4840;DHT22;2434;48.486;7.964;2024-02-14T04:51:55;8.90;51.00
4840;DHT22;2434;48.486;7.964;2024-02-14T04:54:25;9.00;51.20
4840;DHT22;2434;48.486;7.964;2024-02-14T04:56:54;9.00;51.10
4840;DHT22;2434;48.486;7.964;2024-02-14T04:59:27;9.00;50.80
4840;DHT22;2434;48.486;7.964;2024-02-14T05:01:55;9.00;51.00
4840;DHT22;2434;48.486;7.964;2024-02-14T05:04:24;9.00;50.90
4840;DHT22;2434;48.486;7.964;2024-02-14T05:06:52;9.00;50.30
4840;DHT22;2434;48.486;7.964;2024-02-14T05:09:26;9.00;50.10
4840;DHT22;2434;48.486;7.964;2024-02-14T05:11:54;9.00;50.30
4840;DHT22;2434;48.486;7.964;2024-02-14T05:14:22;9.00;50.60
4840;DHT22;2434;48.486;7.964;2024-02-14T05:16:50;9.00;50.90
4840;DHT22;2434;48.486;7.964;2024-02-14T05:19:18;9.00;51.20
4840;DHT22;2434;48.486;7.964;2024-02-14T05:21:49;9.00;51.60
4840;DHT22;2434;48.486;7.964;2024-02-14T05:24:17;9.00;51.80
4840;DHT22;2434;48.486;7.964;2024-02-14T05:26:47;9.00;52.00
4840;DHT22;2434;48.486;7.964;2024-02-14T05:29:16;9.00;52.00
4840;DHT22;2434;48.486;7.964;2024-02-14T05:31:46;9.00;51.70
4840;DHT22;2434;48.486;7.964;2024-02-14T05:34:15;9.00;51.40
4840;DHT22;2434;48.486;7.964;2024-02-14T05:36:44;9.00;51.00
4840;DHT22;2434;48.486;7.964;2024-02-14T05:39:13;9.00;51.10
4840;DHT22;2434;48.486;7.964;2024-02-14T05:41:42;9.00;51.00
4840;DHT22;2434;48.486;7.964;2024-02-14T05:44:12;9.00;50.80
4840;DHT22;2434;48.486;7.964;2024-02-14T05:46:40;9.00;50.50
4840;DHT22;2434;48.486;7.964;2024-02-14T05:49:08;9.00;50.50
4840;DHT22;2434;48.486;7.964;2024-02-14T05:51:37;9.00;50.70
4840;DHT22;2434;48.486;7.964;2024-02-14T05:54:05;9.00;50.70
4840;DHT22;2434;48.486;7.964;2024-02-14T05:56:33;9.00;50.80
4840;DHT22;2434;48.486;7.964;2024-02-14T05:59:01;9.00;50.90
4840;DHT22;2434;48.486;7.964;2024-02-14T06:01:30;9.10;51.10
4840;DHT22;2434;48.486;7.964;2024-02-14T06:03:59;9.10;51.40
4840;DHT22;2434;48.486;7.964;2024-02-14T06:06:27;9.10;51.40
4840;DHT22;2434;48.486;7.964;2024-02-14T06:08:55;9.10;51.50
4840;DHT22;2434;48.486;7.964;2024-02-14T06:11:25;9.10;51.50
4840;DHT22;2434;48.486;7.964;2024-02-14T06:13:53;9.10;52.30
4840;DHT22;2434;48.486;7.964;2024-02-14T06:16:21;9.10;51.60
4840;DHT22;2434;48.486;7.964;2024-02-14T06:18:50;9.10;51.30
4840;DHT22;2434;48.486;7.964;2024-02-14T06:21:19;9.10;50.90
4840;DHT22;2434;48.486;7.964;2024-02-14T06:23:47;9.10;51.00
4840;DHT22;2434;48.486;7.964;2024-02-14T06:26:15;9.20;50.90
4840;DHT22;2434;48.486;7.964;2024-02-14T06:28:44;9.20;50.80
4840;DHT22;2434;48.486;7.964;2024-02-14T06:31:12;9.20;50.80
4840;DHT22;2434;48.486;7.964;2024-02-14T06:33:41;9.20;50.80
4840;DHT22;2434;48.486;7.964;2024-02-14T06:36:12;9.20;50.90
4840;DHT22;2434;48.486;7.964;2024-02-14T06:38:40;9.20;50.80
4840;DHT22;2434;48.486;7.964;2024-02-14T06:41:08;9.20;50.80
4840;DHT22;2434;48.486;7.964;2024-02-14T06:43:36;9.20;50.40
4840;DHT22;2434;48.486;7.964;2024-02-14T06:46:06;9.20;50.20
4840;DHT22;2434;48.486;7.964;2024-02-14T06:48:34;9.20;50.00
4840;DHT22;2434;48.486;7.964;2024-02-14T06:51:02;9.30;49.60
4840;DHT22;2434;48.486;7.964;2024-02-14T06:53:31;9.30;49.80
4840;DHT22;2434;48.486;7.964;2024-02-14T06:56:00;9.30;49.90
4840;DHT22;2434;48.486;7.964;2024-02-14T06:58:28;9.30;50.00
4840;DHT22;2434;48.486;7.964;2024-02-14T07:00:57;9.30;50.10
4840;DHT22;2434;48.486;7.964;2024-02-14T07:03:25;9.30;50.30
4840;DHT22;2434;48.486;7.964;2024-02-14T07:05:53;9.30;50.50
4840;DHT22;2434;48.486;7.964;2024-02-14T07:08:21;9.30;50.50
4840;DHT22;2434;48.486;7.964;2024-02-14T07:10:52;9.40;50.70
4840;DHT22;2434;48.486;7.964;2024-02-14T07:13:20;9.40;50.60
4840;DHT22;2434;48.486;7.964;2024-02-14T07:15:48;9.40;50.80
4840;DHT22;2434;48.486;7.964;2024-02-14T07:18:16;9.40;51.00
4840;DHT22;2434;48.486;7.964;2024-02-14T07:20:45;9.40;51.10
4840;DHT22;2434;48.486;7.964;2024-02-14T07:23:13;9.40;51.40
4840;DHT22;2434;48.486;7.964;2024-02-14T07:25:41;9.40;51.40
4840;DHT22;2434;48.486;7.964;2024-02-14T07:28:11;9.30;51.30
4840;DHT22;2434;48.486;7.964;2024-02-14T07:30:39;9.40;51.40
4840;DHT22;2434;48.486;7.964;2024-02-14T07:33:07;9.40;51.40
4840;DHT22;2434;48.486;7.964;2024-02-14T07:35:36;9.40;51.40
4840;DHT22;2434;48.486;7.964;2024-02-14T07:38:05;9.40;51.40
4840;DHT22;2434;48.486;7.964;2024-02-14T07:40:33;9.40;51.50
4840;DHT22;2434;48.486;7.964;2024-02-14T07:43:01;9.40;51.30
4840;DHT22;2434;48.486;7.964;2024-02-14T07:45:30;9.40;51.50
4840;DHT22;2434;48.486;7.964;2024-02-14T07:47:58;9.40;52.00
4840;DHT22;2434;48.486;7.964;2024-02-14T07:50:26;9.40;52.20
4840;DHT22;2434;48.486;7.964;2024-02-14T07:52:55;9.40;52.20
4840;DHT22;2434;48.486;7.964;2024-02-14T07:55:23;9.40;52.10
4840;DHT22;2434;48.486;7.964;2024-02-14T07:57:51;9.40;52.00
4840;DHT22;2434;48.486;7.964;2024-02-14T08:00:20;9.40;51.70
4840;DHT22;2434;48.486;7.964;2024-02-14T08:02:51;9.40;51.70
4840;DHT22;2434;48.486;7.964;2024-02-14T08:05:19;9.40;51.50
4840;DHT22;2434;48.486;7.964;2024-02-14T08:07:47;9.40;51.70
4840;DHT22;2434;48.486;7.964;2024-02-14T08:10:15;9.40;51.40
4840;DHT22;2434;48.486;7.964;2024-02-14T08:12:43;9.40;51.50
4840;DHT22;2434;48.486;7.964;2024-02-14T08:15:12;9.50;51.70
4840;DHT22;2434;48.486;7.964;2024-02-14T08:17:40;9.40;51.50
4840;DHT22;2434;48.486;7.964;2024-02-14T08:20:14;9.40;51.90
4840;DHT22;2434;48.486;7.964;2024-02-14T08:22:42;9.50;52.50
4840;DHT22;2434;48.486;7.964;2024-02-14T08:25:11;9.40;52.70
4840;DHT22;2434;48.486;7.964;2024-02-14T08:27:39;9.50;53.00
4840;DHT22;2434;48.486;7.964;2024-02-14T08:30:08;9.50;52.90
4840;DHT22;2434;48.486;7.964;2024-02-14T08:32:36;9.50;53.30
4840;DHT22;2434;48.486;7.964;2024-02-14T08:35:05;9.50;53.00
4840;DHT22;2434;48.486;7.964;2024-02-14T08:37:35;9.50;53.00
4840;DHT22;2434;48.486;7.964;2024-02-14T08:40:06;9.60;53.20
4840;DHT22;2434;48.486;7.964;2024-02-14T08:42:34;9.60;53.00
4840;DHT22;2434;48.486;7.964;2024-02-14T08:45:02;9.60;52.80
4840;DHT22;2434;48.486;7.964;2024-02-14T08:47:30;9.60;53.50
4840;DHT22;2434;48.486;7.964;2024-02-14T08:49:58;9.70;53.10
4840;DHT22;2434;48.486;7.964;2024-02-14T08:52:27;9.70;53.10
4840;DHT22;2434;48.486;7.964;2024-02-14T08:54:56;9.70;53.10
4840;DHT22;2434;48.486;7.964;2024-02-14T08:57:24;9.80;53.30
4840;DHT22;2434;48.486;7.964;2024-02-14T08:59:53;9.80;53.60
4840;DHT22;2434;48.486;7.964;2024-02-14T09:02:22;9.90;53.60
4840;DHT22;2434;48.486;7.964;2024-02-14T09:04:52;9.90;53.60
4840;DHT22;2434;48.486;7.964;2024-02-14T09:07:20;10.00;53.20
4840;DHT22;2434;48.486;7.964;2024-02-14T09:09:48;10.00;52.90
4840;DHT22;2434;48.486;7.964;2024-02-14T09:12:17;10.00;53.10
4840;DHT22;2434;48.486;7.964;2024-02-14T09:14:45;10.10;52.90
4840;DHT22;2434;48.486;7.964;2024-02-14T09:17:13;10.10;53.10
4840;DHT22;2434;48.486;7.964;2024-02-14T09:19:42;10.20;53.30
4840;DHT22;2434;48.486;7.964;2024-02-14T09:22:10;10.20;53.50
4840;DHT22;2434;48.486;7.964;2024-02-14T09:24:38;10.30;53.60
4840;DHT22;2434;48.486;7.964;2024-02-14T09:27:06;10.30;53.80
4840;DHT22;2434;48.486;7.964;2024-02-14T09:29:35;10.30;54.00
4840;DHT22;2434;48.486;7.964;2024-02-14T09:32:05;10.40;53.90
4840;DHT22;2434;48.486;7.964;2024-02-14T09:34:34;10.40;54.30
4840;DHT22;2434;48.486;7.964;2024-02-14T09:37:02;10.50;54.40
4840;DHT22;2434;48.486;7.964;2024-02-14T09:39:32;10.50;54.50
4840;DHT22;2434;48.486;7.964;2024-02-14T09:42:08;10.60;54.80
4840;DHT22;2434;48.486;7.964;2024-02-14T09:44:40;10.60;55.10
4840;DHT22;2434;48.486;7.964;2024-02-14T09:47:09;10.60;55.20
4840;DHT22;2434;48.486;7.964;2024-02-14T09:49:38;10.60;55.60
4840;DHT22;2434;48.486;7.964;2024-02-14T09:52:06;10.70;55.60
4840;DHT22;2434;48.486;7.964;2024-02-14T09:54:36;10.70;55.80
4840;DHT22;2434;48.486;7.964;2024-02-14T09:57:06;10.80;56.00
4840;DHT22;2434;48.486;7.964;2024-02-14T09:59:35;10.80;55.90
4840;DHT22;2434;48.486;7.964;2024-02-14T10:02:05;10.80;56.10
4840;DHT22;2434;48.486;7.964;2024-02-14T10:04:34;10.80;56.50
4840;DHT22;2434;48.486;7.964;2024-02-14T10:07:03;10.90;56.80
4840;DHT22;2434;48.486;7.964;2024-02-14T10:09:40;11.00;56.50
4840;DHT22;2434;48.486;7.964;2024-02-14T10:12:08;11.00;56.70
4840;DHT22;2434;48.486;7.964;2024-02-14T10:14:37;11.00;56.80
4840;DHT22;2434;48.486;7.964;2024-02-14T10:17:06;11.10;56.90
4840;DHT22;2434;48.486;7.964;2024-02-14T10:19:36;11.10;56.70
4840;DHT22;2434;48.486;7.964;2024-02-14T10:22:04;11.20;56.90
4840;DHT22;2434;48.486;7.964;2024-02-14T10:24:34;11.20;57.00
4840;DHT22;2434;48.486;7.964;2024-02-14T10:27:06;11.20;56.90
4840;DHT22;2434;48.486;7.964;2024-02-14T10:29:35;11.20;57.30
4840;DHT22;2434;48.486;7.964;2024-02-14T10:32:05;11.30;57.40
4840;DHT22;2434;48.486;7.964;2024-02-14T10:34:34;11.30;57.30
4840;DHT22;2434;48.486;7.964;2024-02-14T10:37:07;11.30;57.50
4840;DHT22;2434;48.486;7.964;2024-02-14T10:39:37;11.40;57.40
4840;DHT22;2434;48.486;7.964;2024-02-14T10:42:06;11.40;57.50
4840;DHT22;2434;48.486;7.964;2024-02-14T10:44:35;11.40;57.60
4840;DHT22;2434;48.486;7.964;2024-02-14T10:47:08;11.50;57.30
4840;DHT22;2434;48.486;7.964;2024-02-14T10:49:40;11.50;57.20
4840;DHT22;2434;48.486;7.964;2024-02-14T10:52:10;11.60;57.10
4840;DHT22;2434;48.486;7.964;2024-02-14T10:54:39;11.60;57.00
4840;DHT22;2434;48.486;7.964;2024-02-14T10:57:08;11.60;57.20
4840;DHT22;2434;48.486;7.964;2024-02-14T10:59:43;11.60;57.20
4840;DHT22;2434;48.486;7.964;2024-02-14T11:02:13;11.70;57.40
4840;DHT22;2434;48.486;7.964;2024-02-14T11:04:42;11.70;57.50
4840;DHT22;2434;48.486;7.964;2024-02-14T11:07:11;11.80;57.30
4840;DHT22;2434;48.486;7.964;2024-02-14T11:09:40;11.80;57.10
4840;DHT22;2434;48.486;7.964;2024-02-14T11:12:08;11.80;57.60
4840;DHT22;2434;48.486;7.964;2024-02-14T11:14:37;11.80;57.60
4840;DHT22;2434;48.486;7.964;2024-02-14T11:17:09;11.90;58.00
4840;DHT22;2434;48.486;7.964;2024-02-14T11:19:39;11.90;57.60
4840;DHT22;2434;48.486;7.964;2024-02-14T11:22:11;12.00;56.70
4840;DHT22;2434;48.486;7.964;2024-02-14T11:24:40;12.00;57.70
4840;DHT22;2434;48.486;7.964;2024-02-14T11:27:12;12.10;57.00
4840;DHT22;2434;48.486;7.964;2024-02-14T11:30:00;12.10;56.90
4840;DHT22;2434;48.486;7.964;2024-02-14T11:32:31;12.10;56.90
4840;DHT22;2434;48.486;7.964;2024-02-14T11:35:01;12.10;57.20
4840;DHT22;2434;48.486;7.964;2024-02-14T11:37:33;12.20;56.90
4840;DHT22;2434;48.486;7.964;2024-02-14T11:40:01;12.20;56.90
4840;DHT22;2434;48.486;7.964;2024-02-14T11:42:30;12.20;56.70
4840;DHT22;2434;48.486;7.964;2024-02-14T11:44:58;12.30;56.50
4840;DHT22;2434;48.486;7.964;2024-02-14T11:47:26;12.40;56.80
4840;DHT22;2434;48.486;7.964;2024-02-14T11:49:55;12.40;56.70
4840;DHT22;2434;48.486;7.964;2024-02-14T11:52:27;12.50;56.60
4840;DHT22;2434;48.486;7.964;2024-02-14T11:54:56;12.50;57.10
4840;DHT22;2434;48.486;7.964;2024-02-14T11:57:26;12.60;56.80
4840;DHT22;2434;48.486;7.964;2024-02-14T11:59:57;12.70;56.10
4840;DHT22;2434;48.486;7.964;2024-02-14T12:02:25;12.90;55.70
4840;DHT22;2434;48.486;7.964;2024-02-14T12:04:54;13.00;55.60
4840;DHT22;2434;48.486;7.964;2024-02-14T12:07:23;13.10;55.30
4840;DHT22;2434;48.486;7.964;2024-02-14T12:09:55;13.10;55.20
4840;DHT22;2434;48.486;7.964;2024-02-14T12:12:23;13.20;54.30
4840;DHT22;2434;48.486;7.964;2024-02-14T12:14:51;13.20;54.00
4840;DHT22;2434;48.486;7.964;2024-02-14T12:17:20;13.20;53.30
4840;DHT22;2434;48.486;7.964;2024-02-14T12:19:49;13.20;53.70
4840;DHT22;2434;48.486;7.964;2024-02-14T12:22:19;13.20;54.10
4840;DHT22;2434;48.486;7.964;2024-02-14T12:24:48;13.20;53.90
4840;DHT22;2434;48.486;7.964;2024-02-14T12:27:18;13.20;53.70
4840;DHT22;2434;48.486;7.964;2024-02-14T12:29:46;13.20;54.00
4840;DHT22;2434;48.486;7.964;2024-02-14T12:32:16;13.30;54.10
4840;DHT22;2434;48.486;7.964;2024-02-14T12:34:45;13.30;54.70
4840;DHT22;2434;48.486;7.964;2024-02-14T12:37:13;13.40;53.80
4840;DHT22;2434;48.486;7.964;2024-02-14T12:39:42;13.40;53.30
4840;DHT22;2434;48.486;7.964;2024-02-14T12:42:10;13.60;54.30
4840;DHT22;2434;48.486;7.964;2024-02-14T12:44:39;13.60;53.60
4840;DHT22;2434;48.486;7.964;2024-02-14T12:47:07;13.70;53.30
4840;DHT22;2434;48.486;7.964;2024-02-14T12:49:35;13.70;52.80
4840;DHT22;2434;48.486;7.964;2024-02-14T12:52:04;13.70;52.60
4840;DHT22;2434;48.486;7.964;2024-02-14T12:54:32;13.70;52.60
4840;DHT22;2434;48.486;7.964;2024-02-14T12:57:00;13.70;52.60
4840;DHT22;2434;48.486;7.964;2024-02-14T12:59:29;13.70;52.60
4840;DHT22;2434;48.486;7.964;2024-02-14T13:01:58;13.70;53.10
4840;DHT22;2434;48.486;7.964;2024-02-14T13:04:27;13.70;52.80
4840;DHT22;2434;48.486;7.964;2024-02-14T13:06:55;13.60;52.80
4840;DHT22;2434;48.486;7.964;2024-02-14T13:09:23;13.70;53.00
4840;DHT22;2434;48.486;7.964;2024-02-14T13:11:51;13.70;52.80
4840;DHT22;2434;48.486;7.964;2024-02-14T13:14:20;13.70;53.30
4840;DHT22;2434;48.486;7.964;2024-02-14T13:16:48;13.70;52.80
4840;DHT22;2434;48.486;7.964;2024-02-14T13:19:18;13.70;52.90
4840;DHT22;2434;48.486;7.964;2024-02-14T13:21:46;13.70;52.70
4840;DHT22;2434;48.486;7.964;2024-02-14T13:24:15;13.70;53.10
4840;DHT22;2434;48.486;7.964;2024-02-14T13:26:43;13.80;53.40
4840;DHT22;2434;48.486;7.964;2024-02-14T13:29:12;13.80;53.60
4840;DHT22;2434;48.486;7.964;2024-02-14T13:31:40;13.80;53.40
4840;DHT22;2434;48.486;7.964;2024-02-14T13:34:08;13.80;52.70
4840;DHT22;2434;48.486;7.964;2024-02-14T13:36:40;13.90;52.90
4840;DHT22;2434;48.486;7.964;2024-02-14T13:39:08;13.90;52.80
4840;DHT22;2434;48.486;7.964;2024-02-14T13:41:36;13.90;53.00
4840;DHT22;2434;48.486;7.964;2024-02-14T13:44:07;14.00;54.00
4840;DHT22;2434;48.486;7.964;2024-02-14T13:46:35;14.10;54.80
4840;DHT22;2434;48.486;7.964;2024-02-14T13:49:04;14.20;54.30
4840;DHT22;2434;48.486;7.964;2024-02-14T13:51:32;14.30;53.30
4840;DHT22;2434;48.486;7.964;2024-02-14T13:54:01;14.40;52.30
4840;DHT22;2434;48.486;7.964;2024-02-14T13:56:30;14.50;52.70
4840;DHT22;2434;48.486;7.964;2024-02-14T13:58:58;14.70;53.20
4840;DHT22;2434;48.486;7.964;2024-02-14T14:01:26;14.80;52.00
4840;DHT22;2434;48.486;7.964;2024-02-14T14:03:54;14.80;51.10
4840;DHT22;2434;48.486;7.964;2024-02-14T14:06:25;14.90;51.10
4840;DHT22;2434;48.486;7.964;2024-02-14T14:08:53;15.00;51.00
4840;DHT22;2434;48.486;7.964;2024-02-14T14:11:23;15.00;50.40
4840;DHT22;2434;48.486;7.964;2024-02-14T14:13:50;15.00;51.30
4840;DHT22;2434;48.486;7.964;2024-02-14T14:16:19;15.00;51.10
4840;DHT22;2434;48.486;7.964;2024-02-14T14:18:48;15.00;51.20
4840;DHT22;2434;48.486;7.964;2024-02-14T14:21:20;14.90;51.30
4840;DHT22;2434;48.486;7.964;2024-02-14T14:23:48;14.90;51.70
4840;DHT22;2434;48.486;7.964;2024-02-14T14:26:17;14.90;52.00
4840;DHT22;2434;48.486;7.964;2024-02-14T14:28:46;14.90;52.50
4840;DHT22;2434;48.486;7.964;2024-02-14T14:31:14;14.80;52.40
4840;DHT22;2434;48.486;7.964;2024-02-14T14:33:42;14.90;52.20
4840;DHT22;2434;48.486;7.964;2024-02-14T14:36:10;14.80;51.80
4840;DHT22;2434;48.486;7.964;2024-02-14T14:38:38;14.80;52.30
4840;DHT22;2434;48.486;7.964;2024-02-14T14:41:07;14.70;52.80
4840;DHT22;2434;48.486;7.964;2024-02-14T14:43:36;14.70;52.90
4840;DHT22;2434;48.486;7.964;2024-02-14T14:46:07;14.70;53.00
4840;DHT22;2434;48.486;7.964;2024-02-14T14:48:35;14.60;53.30
4840;DHT22;2434;48.486;7.964;2024-02-14T14:51:04;14.60;53.20
4840;DHT22;2434;48.486;7.964;2024-02-14T14:53:32;14.60;53.40
4840;DHT22;2434;48.486;7.964;2024-02-14T14:56:02;14.60;53.50
4840;DHT22;2434;48.486;7.964;2024-02-14T14:58:30;14.60;53.90
4840;DHT22;2434;48.486;7.964;2024-02-14T15:01:01;14.50;54.00
4840;DHT22;2434;48.486;7.964;2024-02-14T15:03:32;14.50;54.40
4840;DHT22;2434;48.486;7.964;2024-02-14T15:06:00;14.50;54.70
4840;DHT22;2434;48.486;7.964;2024-02-14T15:08:29;14.50;54.90
4840;DHT22;2434;48.486;7.964;2024-02-14T15:10:57;14.40;55.00
4840;DHT22;2434;48.486;7.964;2024-02-14T15:13:25;14.50;55.20
4840;DHT22;2434;48.486;7.964;2024-02-14T15:15:54;14.50;55.40
4840;DHT22;2434;48.486;7.964;2024-02-14T15:18:23;14.50;55.50
4840;DHT22;2434;48.486;7.964;2024-02-14T15:20:53;14.50;56.40
4840;DHT22;2434;48.486;7.964;2024-02-14T15:23:21;14.40;56.00
4840;DHT22;2434;48.486;7.964;2024-02-14T15:25:49;14.40;56.50
4840;DHT22;2434;48.486;7.964;2024-02-14T15:28:17;14.40;56.90
4840;DHT22;2434;48.486;7.964;2024-02-14T15:30:52;14.30;57.30
4840;DHT22;2434;48.486;7.964;2024-02-14T15:33:37;14.30;57.70
4840;DHT22;2434;48.486;7.964;2024-02-14T15:36:09;14.20;57.70
4840;DHT22;2434;48.486;7.964;2024-02-14T15:38:37;14.30;57.90
4840;DHT22;2434;48.486;7.964;2024-02-14T15:41:05;14.20;57.90
4840;DHT22;2434;48.486;7.964;2024-02-14T15:43:34;14.20;58.10
4840;DHT22;2434;48.486;7.964;2024-02-14T15:46:02;14.20;58.30
4840;DHT22;2434;48.486;7.964;2024-02-14T15:48:30;14.10;58.50
4840;DHT22;2434;48.486;7.964;2024-02-14T15:50:59;14.10;58.60
4840;DHT22;2434;48.486;7.964;2024-02-14T15:53:29;14.00;58.80
4840;DHT22;2434;48.486;7.964;2024-02-14T15:55:58;14.00;58.90
4840;DHT22;2434;48.486;7.964;2024-02-14T15:58:27;14.00;59.20
4840;DHT22;2434;48.486;7.964;2024-02-14T16:00:56;14.00;59.40
4840;DHT22;2434;48.486;7.964;2024-02-14T16:03:24;14.00;59.40
4840;DHT22;2434;48.486;7.964;2024-02-14T16:05:53;13.90;59.70
4840;DHT22;2434;48.486;7.964;2024-02-14T16:08:22;13.90;59.80
4840;DHT22;2434;48.486;7.964;2024-02-14T16:10:54;13.90;60.00
4840;DHT22;2434;48.486;7.964;2024-02-14T16:13:24;13.90;60.20
4840;DHT22;2434;48.486;7.964;2024-02-14T16:15:53;13.90;60.30
4840;DHT22;2434;48.486;7.964;2024-02-14T16:18:21;13.90;60.50
4840;DHT22;2434;48.486;7.964;2024-02-14T16:20:50;13.90;60.70